KA1STV Weather Reports


Display with metric or nautical units.
time (UTC)temp
F
wind
direction
speed
MPH
gust
MPH
rain 1hr
in
rain 24hr
in
rain mn
in
humidity
%
barometer
mb
20210731181921 72 71 1.0 1.0 0.00 0.00 0.00 45 1013.5
20210731181421 70 227 1.0 1.0 0.00 0.00 0.00 58 1013.6
20210731180919 73 270 1.0 1.0 0.00 0.00 0.00 48 1013.4
20210731180418 72 275 1.0 2.0 0.00 0.00 0.00 46 1013.4
20210731175917 74 255 0.0 1.0 0.00 0.00 0.00 47 1013.5
20210731175415 73 228 1.0 1.0 0.00 0.00 0.00 43 1013.6
20210731174915 73 309 1.0 1.0 0.00 0.00 0.00 45 1014.0
20210731174414 73 6 1.0 2.0 0.00 0.00 0.00 53 1013.7
20210731173914 71 27 0.0 0.0 0.00 0.00 0.00 49 1013.8
20210731173412 70 308 0.0 1.0 0.00 0.00 0.00 49 1013.9
20210731172911 71 309 1.0 1.0 0.00 0.00 0.00 49 1013.9
20210731172410 71 337 0.0 0.0 0.00 0.00 0.00 50 1014.1
20210731171909 71 342 1.0 2.0 0.00 0.00 0.00 51 1014.1
20210731171407 72 321 1.0 2.0 0.00 0.00 0.00 52 1014.1
20210731170907 71 306 1.0 1.0 0.00 0.00 0.00 52 1014.0
20210731170404 71 238 1.0 1.0 0.00 0.00 0.00 53 1014.2
20210731165903 71 168 2.0 5.0 0.00 0.00 0.00 48 1014.1
20210731165401 71 285 1.0 2.0 0.00 0.00 0.00 46 1014.3
20210731164857 71 239 1.0 2.0 0.00 0.00 0.00 50 1014.3
20210731164357 71 0 1.0 2.0 0.00 0.00 0.00 54 1014.4
20210731163855 71 277 1.0 1.0 0.00 0.00 0.00 50 1014.3
20210731163351 70 116 1.0 1.0 0.00 0.00 0.00 47 1014.4
20210731162851 70 342 2.0 3.0 0.00 0.00 0.00 54 1014.6
20210731162350 69 234 1.0 2.0 0.00 0.00 0.00 57 1014.6
20210731161848 69 267 2.0 2.0 0.00 0.00 0.00 56 1014.6
20210731161347 69 91 1.0 2.0 0.00 0.00 0.00 46 1014.8
20210731160844 69 315 1.0 2.0 0.00 0.00 0.00 56 1014.7
20210731160344 69 288 1.0 1.0 0.00 0.00 0.00 51 1014.8
20210731155842 69 246 1.0 1.0 0.00 0.00 0.00 55 1014.8
20210731155341 68 356 3.0 3.0 0.00 0.00 0.00 55 1014.8
20210731154839 68 260 1.0 1.0 0.00 0.00 0.00 55 1014.5
20210731154339 68 237 2.0 2.0 0.00 0.00 0.00 60 1014.6
20210731153838 68 74 1.0 2.0 0.00 0.00 0.00 50 1014.5
20210731153336 68 311 1.0 1.0 0.00 0.00 0.00 52 1014.7
20210731152833 67 305 0.0 1.0 0.00 0.00 0.00 52 1015.0
20210731152332 67 264 2.0 2.0 0.00 0.00 0.00 60 1015.0
20210731151830 67 269 2.0 2.0 0.00 0.00 0.00 58 1014.8
20210731151330 67 308 3.0 3.0 0.00 0.00 0.00 60 1014.8
20210731150829 67 12 3.0 3.0 0.00 0.00 0.00 57 1015.0
20210731150330 67 325 1.0 1.0 0.00 0.00 0.00 60 1014.7
20210731145827 67 206 1.0 2.0 0.00 0.00 0.00 52 1014.9
20210731145325 66 311 0.0 0.0 0.00 0.00 0.00 59 1015.0
20210731144824 66 305 2.0 2.0 0.00 0.00 0.00 62 1015.0
20210731144323 65 316 1.0 1.0 0.00 0.00 0.00 54 1015.0
20210731143821 65 227 1.0 2.0 0.00 0.00 0.00 57 1015.1
20210731143320 65 319 1.0 2.0 0.00 0.00 0.00 55 1014.8
20210731142814 65 293 1.0 2.0 0.00 0.00 0.00 59 1014.9
20210731142313 65 268 2.0 2.0 0.00 0.00 0.00 55 1014.8
20210731141812 65 333 1.0 2.0 0.00 0.00 0.00 60 1014.8
20210731141310 65 274 1.0 1.0 0.00 0.00 0.00 59 1014.9
20210731140810 64 285 0.0 0.0 0.00 0.00 0.00 61 1014.8
20210731140309 64 228 0.0 1.0 0.00 0.00 0.00 62 1014.6
20210731135808 64 342 1.0 1.0 0.00 0.00 0.00 61 1014.6
20210731135308 63 350 1.0 2.0 0.00 0.00 0.00 64 1014.7
20210731134806 63 358 1.0 1.0 0.00 0.00 0.00 65 1014.7
20210731134305 63 217 1.0 1.0 0.00 0.00 0.00 61 1014.8
20210731133802 63 269 1.0 1.0 0.00 0.00 0.00 63 1014.9
20210731133324 62 300 0.0 1.0 0.00 0.00 0.00 62 1014.6
20210731132758 62 247 3.0 3.0 0.00 0.00 0.00 63 1014.4
20210731132258 62 279 1.0 2.0 0.00 0.00 0.00 64 1014.9
20210731131756 62 344 1.0 1.0 0.00 0.00 0.00 64 1014.6
20210731131254 62 242 2.0 2.0 0.00 0.00 0.00 67 1014.7
20210731130753 61 214 1.0 2.0 0.00 0.00 0.00 66 1014.8
20210731130250 61 225 2.0 2.0 0.00 0.00 0.00 63 1014.8
20210731125750 61 318 3.0 3.0 0.00 0.00 0.00 66 1014.8
20210731125249 61 353 2.0 2.0 0.00 0.00 0.00 68 1014.7
20210731124750 61 296 2.0 2.0 0.00 0.00 0.00 66 1014.7
20210731124252 61 245 2.0 2.0 0.00 0.00 0.00 70 1014.7
20210731123746 61 326 2.0 2.0 0.00 0.00 0.00 70 1014.7
20210731123330 60 270 1.0 2.0 0.00 0.00 0.00 70 1014.7
20210731122743 60 309 1.0 1.0 0.00 0.00 0.00 68 1014.8
20210731122242 60 315 1.0 1.0 0.00 0.00 0.00 71 1014.8
20210731121742 60 248 1.0 1.0 0.00 0.00 0.00 70 1014.9
20210731121241 60 359 1.0 2.0 0.00 0.00 0.00 70 1014.7
20210731120739 59 12 0.0 1.0 0.00 0.00 0.00 76 1014.8
20210731120238 59 324 1.0 1.0 0.00 0.00 0.00 77 1014.5
20210731115735 58 298 0.0 1.0 0.00 0.00 0.00 74 1014.8
20210731115234 58 60 1.0 1.0 0.00 0.00 0.00 76 1014.5
20210731114731 58 12 0.0 0.0 0.00 0.00 0.00 77 1014.6
20210731114229 58 359 1.0 1.0 0.00 0.00 0.00 75 1014.5
20210731113726 58 43 1.0 1.0 0.00 0.00 0.00 75 1014.5
20210731113226 57 56 1.0 2.0 0.00 0.00 0.00 78 1014.4
20210731112725 57 56 1.0 1.0 0.00 0.00 0.00 74 1014.4
20210731112223 57 56 1.0 1.0 0.00 0.00 0.00 76 1014.4
20210731111723 56 223 0.0 0.0 0.00 0.00 0.00 83 1014.7
20210731111220 56 223 0.0 0.0 0.00 0.00 0.00 81 1014.6
20210731110719 56 221 2.0 2.0 0.00 0.00 0.00 80 1014.7
20210731110215 57 209 1.0 1.0 0.00 0.00 0.00 82 1014.6
20210731105713 57 346 0.0 0.0 0.00 0.00 0.00 78 1014.4
20210731105212 55 344 0.0 0.0 0.00 0.00 0.00 83 1014.7
20210731104710 55 344 1.0 1.0 0.00 0.00 0.00 84 1014.4
20210731104208 55 344 0.0 0.0 0.00 0.00 0.00 84 1014.1
20210731103707 55 344 0.0 1.0 0.00 0.00 0.00 84 1014.3
20210731103206 53 344 0.0 0.0 0.00 0.00 0.00 86 1014.3
20210731102705 53 344 1.0 1.0 0.00 0.00 0.00 88 1014.0
20210731102204 53 346 0.0 0.0 0.00 0.00 0.00 88 1014.0
20210731101659 53 44 0.0 1.0 0.00 0.00 0.00 84 1014.2
20210731101158 52 265 0.0 0.0 0.00 0.00 0.00 91 1014.0
20210731100656 51 265 1.0 1.0 0.00 0.00 0.00 92 1014.2
20210731100151 51 320 0.0 0.0 0.00 0.00 0.00 94 1014.2
20210731095641 50 267 0.0 0.0 0.00 0.00 0.00 94 1013.8
20210731095141 50 268 0.0 0.0 0.00 0.00 0.00 93 1014.0
20210731094638 51 243 0.0 1.0 0.00 0.00 0.00 92 1013.8
20210731094137 51 244 0.0 0.0 0.00 0.00 0.00 92 1013.9
20210731093637 51 244 1.0 1.0 0.00 0.00 0.00 92 1013.9
20210731093135 51 243 0.0 0.0 0.00 0.00 0.00 92 1013.8
20210731092634 52 243 0.0 0.0 0.00 0.00 0.00 91 1013.8
20210731092133 52 282 1.0 1.0 0.00 0.00 0.00 90 1013.9
20210731091632 52 285 0.0 0.0 0.00 0.00 0.00 90 1013.7
20210731091132 53 214 0.0 0.0 0.00 0.00 0.00 88 1013.4
20210731090630 53 214 0.0 0.0 0.00 0.00 0.00 87 1013.4
20210731090128 52 215 1.0 1.0 0.00 0.00 0.00 88 1013.4
20210731085626 52 215 1.0 1.0 0.00 0.00 0.00 89 1013.6
20210731085125 53 283 0.0 1.0 0.00 0.00 0.00 89 1013.6
20210731084624 53 190 0.0 0.0 0.00 0.00 0.00 88 1013.4
20210731084122 53 125 1.0 1.0 0.00 0.00 0.00 86 1013.5
20210731083621 54 101 2.0 2.0 0.00 0.00 0.00 85 1013.3
20210731083118 54 59 0.0 0.0 0.00 0.00 0.00 83 1013.4
20210731082618 53 277 2.0 3.0 0.00 0.00 0.00 84 1013.4
20210731082117 54 131 0.0 0.0 0.00 0.00 0.00 84 1013.4
20210731081616 54 183 1.0 2.0 0.00 0.00 0.00 84 1013.2
20210731081115 54 189 3.0 3.0 0.00 0.00 0.00 83 1013.3
20210731080613 54 214 1.0 1.0 0.00 0.00 0.00 85 1013.2
20210731080111 54 266 0.0 0.0 0.00 0.00 0.00 85 1013.3
20210731075610 54 283 0.0 0.0 0.00 0.00 0.00 84 1013.2
20210731075109 54 288 0.0 0.0 0.00 0.00 0.00 84 1013.2
20210731074608 54 315 1.0 1.0 0.00 0.00 0.00 84 1013.6
20210731074107 54 312 1.0 1.0 0.00 0.00 0.00 83 1013.2
20210731073607 55 333 1.0 1.0 0.00 0.00 0.00 84 1013.4
20210731073105 54 296 0.0 1.0 0.00 0.00 0.00 83 1013.4
20210731072603 54 315 2.0 2.0 0.00 0.00 0.00 84 1013.7
20210731072101 55 330 1.0 2.0 0.00 0.00 0.00 83 1013.6
20210731071559 54 7 0.0 1.0 0.00 0.00 0.00 82 1013.8
20210731071058 53 100 0.0 0.0 0.00 0.00 0.00 86 1013.7
20210731070558 52 97 0.0 0.0 0.00 0.00 0.00 89 1013.8
20210731070112 52 90 0.0 0.0 0.00 0.00 0.00 92 1013.7
20210731065556 52 90 0.0 0.0 0.00 0.00 0.00 91 1013.7
20210731065051 53 90 0.0 0.0 0.00 0.00 0.00 90 1013.8
20210731064551 53 86 0.0 0.0 0.00 0.00 0.00 89 1013.7
20210731064050 53 79 0.0 0.0 0.00 0.00 0.00 90 1014.0
20210731063548 53 79 0.0 1.0 0.00 0.00 0.00 90 1014.1
20210731063046 53 310 0.0 0.0 0.00 0.00 0.00 89 1014.1
20210731062544 53 308 0.0 0.0 0.00 0.00 0.00 89 1014.1
20210731062044 53 308 0.0 0.0 0.00 0.00 0.00 89 1014.1
20210731061543 53 339 0.0 0.0 0.00 0.00 0.00 90 1013.8
20210731061043 55 271 0.0 1.0 0.00 0.00 0.00 88 1013.9
20210731060541 55 271 0.0 0.0 0.00 0.00 0.00 85 1013.6
20210731060039 55 271 0.0 0.0 0.00 0.00 0.00 87 1013.6
20210731055539 55 271 1.0 1.0 0.00 0.00 0.00 88 1013.2
20210731055038 55 271 0.0 0.0 0.00 0.00 0.00 87 1013.6
20210731054536 55 271 1.0 1.0 0.00 0.00 0.00 88 1013.7
20210731054034 55 271 0.0 0.0 0.00 0.00 0.00 87 1013.6
20210731053534 55 271 1.0 1.0 0.00 0.00 0.00 88 1013.7
20210731053033 56 271 1.0 1.0 0.00 0.00 0.00 86 1013.5
20210731052534 56 271 1.0 1.0 0.00 0.00 0.00 85 1013.8
20210731052033 57 271 1.0 1.0 0.00 0.00 0.00 85 1013.7
20210731051531 57 271 1.0 1.0 0.00 0.00 0.00 85 1013.8
20210731051031 57 271 1.0 1.0 0.00 0.00 0.00 84 1013.8
20210731050529 57 273 0.0 1.0 0.00 0.00 0.00 84 1013.9
20210731050027 57 273 0.0 1.0 0.00 0.00 0.00 83 1013.9
20210731045521 57 272 1.0 1.0 0.00 0.00 0.00 86 1014.0
20210731045017 57 286 0.0 1.0 0.00 0.00 0.00 84 1014.0
20210731044513 57 285 1.0 1.0 0.00 0.00 0.00 81 1013.9
20210731044010 58 306 0.0 0.0 0.00 0.00 0.00 77 1013.6
20210731043508 58 311 0.0 1.0 0.00 0.00 0.00 78 1013.8
20210731043007 58 323 2.0 2.0 0.00 0.00 0.00 80 1013.8
20210731042506 58 197 0.0 0.0 0.00 0.00 0.00 79 1013.8
20210731042005 58 196 0.0 0.0 0.00 0.00 0.00 79 1014.1
20210731041502 58 194 0.0 1.0 0.00 0.00 0.00 79 1013.8
20210731040958 59 181 0.0 1.0 0.00 0.00 0.00 76 1013.7
20210731040456 59 203 1.0 1.0 0.00 0.00 0.00 74 1013.5
20210731035954 59 146 0.0 0.0 0.00 0.01 0.01 74 1013.7
20210731035453 59 288 0.0 1.0 0.00 0.01 0.01 76 1013.5
20210731034949 59 305 1.0 1.0 0.00 0.01 0.01 74 1013.2
20210731034448 60 276 0.0 1.0 0.00 0.01 0.01 74 1013.1
20210731033947 60 297 1.0 1.0 0.00 0.01 0.01 73 1013.0
20210731033446 60 289 1.0 1.0 0.00 0.01 0.01 72 1013.1
20210731032945 59 299 1.0 1.0 0.00 0.01 0.01 72 1013.3
20210731032444 59 303 1.0 2.0 0.00 0.01 0.01 73 1013.4
20210731031942 59 319 0.0 0.0 0.00 0.01 0.01 75 1013.4
20210731031443 59 259 1.0 1.0 0.00 0.01 0.01 75 1013.6
20210731030942 59 210 1.0 1.0 0.00 0.01 0.01 75 1013.6
20210731030442 59 206 0.0 1.0 0.00 0.01 0.01 75 1013.6
20210731025941 59 204 1.0 1.0 0.00 0.01 0.01 74 1013.5
20210731025440 59 169 0.0 0.0 0.00 0.01 0.01 71 1013.5
20210731024938 60 26 0.0 1.0 0.00 0.01 0.01 71 1013.5
20210731024437 61 26 0.0 0.0 0.00 0.01 0.01 69 1013.3
20210731023935 61 98 1.0 1.0 0.00 0.01 0.01 67 1013.3
20210731023433 60 255 0.0 0.0 0.00 0.01 0.01 70 1013.2
20210731022932 60 255 0.0 1.0 0.00 0.01 0.01 72 1013.2
20210731022429 59 254 1.0 1.0 0.00 0.01 0.01 71 1013.1
20210731021929 58 254 1.0 1.0 0.00 0.01 0.01 75 1013.1
20210731021428 58 254 1.0 1.0 0.00 0.01 0.01 82 1013.1
20210731020927 58 258 1.0 1.0 0.00 0.01 0.01 84 1012.9
20210731020425 58 258 1.0 1.0 0.00 0.01 0.01 78 1012.7
20210731015924 59 258 0.0 0.0 0.00 0.01 0.01 75 1012.8
20210731015423 59 259 0.0 0.0 0.00 0.01 0.01 77 1012.7
20210731014923 59 259 0.0 0.0 0.00 0.01 0.01 78 1012.8
20210731014421 59 259 1.0 1.0 0.00 0.01 0.01 76 1012.7
20210731013919 59 259 0.0 1.0 0.00 0.01 0.01 74 1012.6
20210731013417 59 260 0.0 1.0 0.00 0.01 0.01 79 1012.6
20210731012917 60 253 1.0 1.0 0.00 0.01 0.01 75 1012.3
20210731012415 60 239 0.0 0.0 0.00 0.01 0.01 73 1012.3
20210731011913 60 281 1.0 2.0 0.00 0.01 0.01 77 1012.2
20210731011411 61 262 0.0 0.0 0.00 0.01 0.01 73 1011.9
20210731010911 62 328 1.0 1.0 0.00 0.01 0.01 75 1011.9
20210731010408 62 249 0.0 0.0 0.00 0.01 0.01 65 1011.8
20210731005908 62 249 0.0 0.0 0.00 0.01 0.01 66 1011.8
20210731005405 63 249 0.0 0.0 0.00 0.01 0.01 68 1011.4
20210731004906 63 249 0.0 0.0 0.00 0.01 0.01 66 1011.4
20210731004353 63 249 0.0 1.0 0.00 0.01 0.01 68 1011.3
20210731004026 63 249 1.0 1.0 0.00 0.01 0.01 70 1011.3
20210731003352 63 261 1.0 1.0 0.00 0.01 0.01 65 1011.0
20210731002850 64 261 1.0 1.0 0.00 0.01 0.01 67 1011.1
20210731002349 64 261 1.0 1.0 0.00 0.01 0.01 62 1011.2
20210731001847 64 261 0.0 1.0 0.00 0.01 0.01 64 1010.9
20210731001347 65 260 1.0 1.0 0.00 0.01 0.01 71 1011.1
20210731000846 65 260 1.0 1.0 0.00 0.01 0.01 63 1010.8
20210731000343 65 261 0.0 1.0 0.00 0.01 0.01 70 1010.5
20210730235842 66 260 0.0 0.0 0.00 0.01 0.01 67 1010.5
20210730235340 66 277 1.0 1.0 0.00 0.01 0.01 66 1010.7
20210730234840 67 279 0.0 0.0 0.00 0.01 0.01 57 1010.4
20210730234338 67 278 1.0 1.0 0.00 0.01 0.01 58 1010.7
20210730233836 67 278 1.0 1.0 0.00 0.01 0.01 60 1010.4
20210730233353 67 303 1.0 1.0 0.00 0.01 0.01 58 1010.3
20210730232833 67 272 0.0 0.0 0.00 0.01 0.01 68 1010.3
20210730232330 67 272 0.0 0.0 0.00 0.01 0.01 67 1010.1
20210730231827 67 262 0.0 0.0 0.00 0.01 0.01 62 1010.1
20210730231325 68 298 1.0 1.0 0.00 0.01 0.01 65 1010.1
20210730230824 68 258 1.0 1.0 0.00 0.01 0.01 66 1010.1
20210730230322 68 278 0.0 0.0 0.00 0.01 0.01 64 1009.9
20210730225822 69 278 1.0 1.0 0.00 0.01 0.01 62 1009.7
20210730225322 69 280 1.0 1.0 0.00 0.01 0.01 60 1009.7
20210730224819 70 318 1.0 2.0 0.00 0.01 0.01 58 1009.6
20210730224315 70 314 0.0 0.0 0.00 0.01 0.01 58 1009.6
20210730223814 70 309 0.0 0.0 0.00 0.01 0.01 54 1009.4
20210730223312 70 334 0.0 0.0 0.00 0.01 0.01 57 1009.3
20210730222811 70 10 1.0 2.0 0.00 0.01 0.01 56 1009.2
20210730222311 70 310 1.0 1.0 0.00 0.01 0.01 57 1009.3
20210730221810 71 289 1.0 1.0 0.00 0.01 0.01 54 1009.2
20210730221309 71 21 3.0 5.0 0.00 0.01 0.01 53 1009.0
20210730220807 71 305 2.0 2.0 0.00 0.01 0.01 52 1009.1
20210730220305 71 302 1.0 1.0 0.00 0.01 0.01 55 1009.1
20210730215805 71 282 1.0 1.0 0.00 0.01 0.01 58 1009.0
20210730215305 71 302 0.0 1.0 0.00 0.01 0.01 51 1008.6
20210730214800 71 234 1.0 2.0 0.00 0.01 0.01 54 1008.6
20210730214259 72 255 1.0 1.0 0.00 0.01 0.01 52 1008.4
20210730213756 72 319 1.0 1.0 0.00 0.01 0.01 49 1008.5
20210730213256 73 228 1.0 2.0 0.00 0.01 0.01 50 1008.5
20210730212755 74 221 1.0 1.0 0.00 0.01 0.01 53 1008.4
20210730212253 74 329 2.0 3.0 0.00 0.01 0.01 48 1008.3
20210730211752 74 264 1.0 2.0 0.00 0.01 0.01 49 1008.3
20210730211251 74 313 2.0 2.0 0.00 0.01 0.01 49 1008.3
20210730210749 73 257 1.0 2.0 0.00 0.01 0.01 47 1008.4
20210730210247 74 316 2.0 2.0 0.00 0.01 0.01 47 1008.2
20210730205747 75 292 2.0 2.0 0.00 0.01 0.01 44 1008.1
20210730205246 75 327 2.0 2.0 0.00 0.01 0.01 43 1008.1
20210730204744 75 220 2.0 2.0 0.00 0.01 0.01 46 1008.1
20210730204242 75 289 2.0 2.0 0.00 0.01 0.01 47 1008.2
20210730203741 75 277 2.0 2.0 0.00 0.01 0.01 47 1008.0
20210730203240 76 347 3.0 5.0 0.00 0.01 0.01 44 1007.8
20210730202738 76 288 1.0 1.0 0.00 0.01 0.01 45 1008.0
20210730202235 76 311 2.0 2.0 0.00 0.01 0.01 46 1007.9
20210730201735 76 241 1.0 1.0 0.00 0.01 0.01 46 1007.9
20210730201235 76 227 1.0 1.0 0.00 0.01 0.01 46 1007.9
20210730200734 76 242 3.0 3.0 0.00 0.01 0.01 46 1008.1
20210730200233 77 239 4.0 6.0 0.00 0.01 0.01 47 1007.8
20210730195731 77 254 3.0 3.0 0.00 0.01 0.01 48 1007.8
20210730195230 77 86 2.0 2.0 0.00 0.01 0.01 44 1007.7
20210730194729 76 197 4.0 7.0 0.00 0.01 0.01 44 1007.6
20210730194225 77 10 3.0 3.0 0.00 0.01 0.01 49 1007.7
20210730193725 77 333 2.0 2.0 0.00 0.01 0.01 48 1007.8
20210730193211 77 318 2.0 3.0 0.00 0.01 0.01 51 1007.6
20210730192709 77 285 2.0 3.0 0.00 0.01 0.01 54 1007.6
20210730192208 78 292 1.0 1.0 0.00 0.01 0.01 51 1007.6
20210730191707 78 240 2.0 2.0 0.00 0.01 0.01 53 1007.2
20210730191204 78 314 1.0 1.0 0.00 0.01 0.01 56 1007.4
20210730190703 77 316 3.0 3.0 0.00 0.01 0.01 56 1007.7
20210730190200 76 317 2.0 2.0 0.00 0.01 0.01 55 1007.4
20210730185659 76 243 2.0 2.0 0.00 0.01 0.01 57 1007.2
20210730185159 76 237 2.0 2.0 0.00 0.01 0.01 57 1007.2
20210730184658 79 309 3.0 3.0 0.00 0.01 0.01 53 1007.3
20210730184157 79 288 1.0 1.0 0.00 0.01 0.01 52 1007.2
20210730183659 78 307 2.0 2.0 0.00 0.01 0.01 56 1007.4
20210730183158 77 13 4.0 7.0 0.00 0.01 0.01 53 1007.2
20210730182654 77 231 3.0 3.0 0.00 0.01 0.01 56 1007.1
20210730182151 78 244 2.0 2.0 0.00 0.01 0.01 57 1007.2